sensor_id;sensor_type;location;lat;lon;timestamp;P1;durP1;ratioP1;P2;durP2;ratioP2
84923;SDS011;75286;52.218;5.180;2024-01-30T00:02:23;21.42;;;11.95;;
84923;SDS011;75286;52.218;5.180;2024-01-30T00:04:48;16.88;;;12.10;;
84923;SDS011;75286;52.218;5.180;2024-01-30T00:07:14;15.77;;;11.20;;
84923;SDS011;75286;52.218;5.180;2024-01-30T00:09:40;19.38;;;12.68;;
84923;SDS011;75286;52.218;5.180;2024-01-30T00:12:06;16.65;;;11.90;;
84923;SDS011;75286;52.218;5.180;2024-01-30T00:14:31;17.27;;;11.55;;
84923;SDS011;75286;52.218;5.180;2024-01-30T00:17:00;19.02;;;12.07;;
84923;SDS011;75286;52.218;5.180;2024-01-30T00:19:25;16.30;;;10.77;;
84923;SDS011;75286;52.218;5.180;2024-01-30T00:21:54;16.52;;;11.13;;
84923;SDS011;75286;52.218;5.180;2024-01-30T00:24:22;15.68;;;11.57;;
84923;SDS011;75286;52.218;5.180;2024-01-30T00:26:48;18.02;;;10.82;;
84923;SDS011;75286;52.218;5.180;2024-01-30T00:29:14;16.15;;;11.15;;
84923;SDS011;75286;52.218;5.180;2024-01-30T00:31:44;16.55;;;10.15;;
84923;SDS011;75286;52.218;5.180;2024-01-30T00:34:10;16.02;;;9.80;;
84923;SDS011;75286;52.218;5.180;2024-01-30T00:36:35;14.68;;;10.40;;
84923;SDS011;75286;52.218;5.180;2024-01-30T00:39:02;16.48;;;10.98;;
84923;SDS011;75286;52.218;5.180;2024-01-30T00:41:31;17.92;;;11.60;;
84923;SDS011;75286;52.218;5.180;2024-01-30T00:43:56;17.70;;;11.10;;
84923;SDS011;75286;52.218;5.180;2024-01-30T00:46:22;17.52;;;10.80;;
84923;SDS011;75286;52.218;5.180;2024-01-30T00:48:47;16.52;;;10.95;;
84923;SDS011;75286;52.218;5.180;2024-01-30T00:51:12;16.23;;;10.70;;
84923;SDS011;75286;52.218;5.180;2024-01-30T00:53:38;17.88;;;10.90;;
84923;SDS011;75286;52.218;5.180;2024-01-30T00:56:03;17.95;;;10.50;;
84923;SDS011;75286;52.218;5.180;2024-01-30T00:58:29;15.23;;;10.88;;
84923;SDS011;75286;52.218;5.180;2024-01-30T01:00:54;14.95;;;9.85;;
84923;SDS011;75286;52.218;5.180;2024-01-30T01:03:19;14.70;;;9.55;;
84923;SDS011;75286;52.218;5.180;2024-01-30T01:05:45;15.25;;;10.15;;
84923;SDS011;75286;52.218;5.180;2024-01-30T01:08:10;17.55;;;11.00;;
84923;SDS011;75286;52.218;5.180;2024-01-30T01:10:35;16.55;;;11.15;;
84923;SDS011;75286;52.218;5.180;2024-01-30T01:13:01;14.30;;;9.30;;
84923;SDS011;75286;52.218;5.180;2024-01-30T01:15:26;15.20;;;10.10;;
84923;SDS011;75286;52.218;5.180;2024-01-30T01:17:54;16.30;;;9.55;;
84923;SDS011;75286;52.218;5.180;2024-01-30T01:20:19;16.30;;;10.35;;
84923;SDS011;75286;52.218;5.180;2024-01-30T01:22:45;15.30;;;9.18;;
84923;SDS011;75286;52.218;5.180;2024-01-30T01:25:10;17.67;;;10.43;;
84923;SDS011;75286;52.218;5.180;2024-01-30T01:27:36;16.02;;;9.77;;
84923;SDS011;75286;52.218;5.180;2024-01-30T01:30:06;16.52;;;9.40;;
84923;SDS011;75286;52.218;5.180;2024-01-30T01:32:36;14.88;;;9.80;;
84923;SDS011;75286;52.218;5.180;2024-01-30T01:35:01;15.80;;;9.48;;
84923;SDS011;75286;52.218;5.180;2024-01-30T01:37:27;16.15;;;10.13;;
84923;SDS011;75286;52.218;5.180;2024-01-30T01:39:56;15.23;;;10.15;;
84923;SDS011;75286;52.218;5.180;2024-01-30T01:42:21;16.13;;;10.43;;
84923;SDS011;75286;52.218;5.180;2024-01-30T01:44:47;15.98;;;9.55;;
84923;SDS011;75286;52.218;5.180;2024-01-30T01:47:14;14.45;;;9.23;;
84923;SDS011;75286;52.218;5.180;2024-01-30T01:49:40;18.02;;;10.43;;
84923;SDS011;75286;52.218;5.180;2024-01-30T01:52:05;18.20;;;10.65;;
84923;SDS011;75286;52.218;5.180;2024-01-30T01:54:31;15.65;;;9.82;;
84923;SDS011;75286;52.218;5.180;2024-01-30T01:56:57;14.15;;;9.55;;
84923;SDS011;75286;52.218;5.180;2024-01-30T01:59:28;16.10;;;9.70;;
84923;SDS011;75286;52.218;5.180;2024-01-30T02:01:54;15.27;;;10.40;;
84923;SDS011;75286;52.218;5.180;2024-01-30T02:04:20;10.85;;;7.30;;
84923;SDS011;75286;52.218;5.180;2024-01-30T02:06:46;14.85;;;9.20;;
84923;SDS011;75286;52.218;5.180;2024-01-30T02:09:11;16.27;;;10.05;;
84923;SDS011;75286;52.218;5.180;2024-01-30T02:11:37;14.38;;;9.68;;
84923;SDS011;75286;52.218;5.180;2024-01-30T02:14:04;13.50;;;9.73;;
84923;SDS011;75286;52.218;5.180;2024-01-30T02:16:30;13.45;;;8.65;;
84923;SDS011;75286;52.218;5.180;2024-01-30T02:18:58;14.30;;;9.73;;
84923;SDS011;75286;52.218;5.180;2024-01-30T02:21:23;13.88;;;9.93;;
84923;SDS011;75286;52.218;5.180;2024-01-30T02:23:49;15.70;;;9.57;;
84923;SDS011;75286;52.218;5.180;2024-01-30T02:26:15;15.07;;;10.13;;
84923;SDS011;75286;52.218;5.180;2024-01-30T02:28:41;14.35;;;10.23;;
84923;SDS011;75286;52.218;5.180;2024-01-30T02:31:06;16.13;;;10.35;;
84923;SDS011;75286;52.218;5.180;2024-01-30T02:33:31;13.98;;;9.60;;
84923;SDS011;75286;52.218;5.180;2024-01-30T02:35:57;15.30;;;9.40;;
84923;SDS011;75286;52.218;5.180;2024-01-30T02:38:23;14.95;;;9.07;;
84923;SDS011;75286;52.218;5.180;2024-01-30T02:40:52;17.95;;;10.15;;
84923;SDS011;75286;52.218;5.180;2024-01-30T02:43:17;15.40;;;9.98;;
84923;SDS011;75286;52.218;5.180;2024-01-30T02:45:43;14.45;;;9.50;;
84923;SDS011;75286;52.218;5.180;2024-01-30T02:48:08;15.80;;;10.23;;
84923;SDS011;75286;52.218;5.180;2024-01-30T02:50:34;13.38;;;9.43;;
84923;SDS011;75286;52.218;5.180;2024-01-30T02:52:59;17.50;;;10.68;;
84923;SDS011;75286;52.218;5.180;2024-01-30T02:55:25;14.10;;;8.80;;
84923;SDS011;75286;52.218;5.180;2024-01-30T02:57:53;16.35;;;11.15;;
84923;SDS011;75286;52.218;5.180;2024-01-30T03:00:19;14.38;;;8.80;;
84923;SDS011;75286;52.218;5.180;2024-01-30T03:02:45;12.60;;;8.95;;
84923;SDS011;75286;52.218;5.180;2024-01-30T03:05:10;15.13;;;9.18;;
84923;SDS011;75286;52.218;5.180;2024-01-30T03:07:35;14.55;;;9.13;;
84923;SDS011;75286;52.218;5.180;2024-01-30T03:10:01;15.85;;;9.95;;
84923;SDS011;75286;52.218;5.180;2024-01-30T03:12:26;14.38;;;9.52;;
84923;SDS011;75286;52.218;5.180;2024-01-30T03:14:51;14.95;;;9.70;;
84923;SDS011;75286;52.218;5.180;2024-01-30T03:17:17;13.82;;;8.45;;
84923;SDS011;75286;52.218;5.180;2024-01-30T03:19:43;14.98;;;8.90;;
84923;SDS011;75286;52.218;5.180;2024-01-30T03:22:08;15.02;;;9.30;;
84923;SDS011;75286;52.218;5.180;2024-01-30T03:24:33;15.35;;;9.25;;
84923;SDS011;75286;52.218;5.180;2024-01-30T03:27:01;15.27;;;9.77;;
84923;SDS011;75286;52.218;5.180;2024-01-30T03:29:26;16.45;;;9.55;;
84923;SDS011;75286;52.218;5.180;2024-01-30T03:31:58;15.82;;;10.02;;
84923;SDS011;75286;52.218;5.180;2024-01-30T03:34:23;14.15;;;9.63;;
84923;SDS011;75286;52.218;5.180;2024-01-30T03:36:49;16.63;;;9.30;;
84923;SDS011;75286;52.218;5.180;2024-01-30T03:39:14;13.32;;;8.57;;
84923;SDS011;75286;52.218;5.180;2024-01-30T03:41:41;14.32;;;8.93;;
84923;SDS011;75286;52.218;5.180;2024-01-30T03:44:08;14.77;;;9.15;;
84923;SDS011;75286;52.218;5.180;2024-01-30T03:46:33;12.23;;;8.57;;
84923;SDS011;75286;52.218;5.180;2024-01-30T03:48:58;22.13;;;9.73;;
84923;SDS011;75286;52.218;5.180;2024-01-30T03:51:26;13.68;;;8.57;;
84923;SDS011;75286;52.218;5.180;2024-01-30T03:54:05;13.52;;;8.90;;
84923;SDS011;75286;52.218;5.180;2024-01-30T03:56:35;15.45;;;10.05;;
84923;SDS011;75286;52.218;5.180;2024-01-30T03:59:00;12.88;;;8.93;;
84923;SDS011;75286;52.218;5.180;2024-01-30T04:01:27;15.88;;;9.98;;
84923;SDS011;75286;52.218;5.180;2024-01-30T04:03:53;14.73;;;9.77;;
84923;SDS011;75286;52.218;5.180;2024-01-30T04:06:18;17.17;;;9.75;;
84923;SDS011;75286;52.218;5.180;2024-01-30T04:08:44;15.80;;;9.55;;
84923;SDS011;75286;52.218;5.180;2024-01-30T04:11:09;18.17;;;9.88;;
84923;SDS011;75286;52.218;5.180;2024-01-30T04:13:34;15.48;;;9.68;;
84923;SDS011;75286;52.218;5.180;2024-01-30T04:16:00;15.95;;;9.88;;
84923;SDS011;75286;52.218;5.180;2024-01-30T04:18:29;15.95;;;9.48;;
84923;SDS011;75286;52.218;5.180;2024-01-30T04:20:55;16.17;;;10.98;;
84923;SDS011;75286;52.218;5.180;2024-01-30T04:23:32;13.27;;;9.20;;
84923;SDS011;75286;52.218;5.180;2024-01-30T04:26:07;14.05;;;10.43;;
84923;SDS011;75286;52.218;5.180;2024-01-30T04:28:32;14.25;;;9.73;;
84923;SDS011;75286;52.218;5.180;2024-01-30T04:30:57;18.92;;;10.07;;
84923;SDS011;75286;52.218;5.180;2024-01-30T04:33:32;14.85;;;10.35;;
84923;SDS011;75286;52.218;5.180;2024-01-30T04:35:57;15.45;;;9.05;;
84923;SDS011;75286;52.218;5.180;2024-01-30T04:38:23;14.38;;;9.75;;
84923;SDS011;75286;52.218;5.180;2024-01-30T04:40:48;17.40;;;10.82;;
84923;SDS011;75286;52.218;5.180;2024-01-30T04:43:14;15.55;;;10.80;;
84923;SDS011;75286;52.218;5.180;2024-01-30T04:45:40;17.23;;;10.98;;
84923;SDS011;75286;52.218;5.180;2024-01-30T04:48:06;15.48;;;10.82;;
84923;SDS011;75286;52.218;5.180;2024-01-30T04:50:34;16.48;;;10.57;;
84923;SDS011;75286;52.218;5.180;2024-01-30T04:52:59;16.20;;;10.23;;
84923;SDS011;75286;52.218;5.180;2024-01-30T04:55:25;16.73;;;10.80;;
84923;SDS011;75286;52.218;5.180;2024-01-30T04:57:50;15.73;;;11.02;;
84923;SDS011;75286;52.218;5.180;2024-01-30T05:00:15;14.90;;;9.30;;
84923;SDS011;75286;52.218;5.180;2024-01-30T05:02:41;16.80;;;10.63;;
84923;SDS011;75286;52.218;5.180;2024-01-30T05:05:06;15.68;;;9.27;;
84923;SDS011;75286;52.218;5.180;2024-01-30T05:07:33;15.45;;;9.93;;
84923;SDS011;75286;52.218;5.180;2024-01-30T05:10:07;16.23;;;11.45;;
84923;SDS011;75286;52.218;5.180;2024-01-30T05:12:33;16.77;;;11.43;;
84923;SDS011;75286;52.218;5.180;2024-01-30T05:14:59;18.02;;;10.85;;
84923;SDS011;75286;52.218;5.180;2024-01-30T05:17:24;16.38;;;9.63;;
84923;SDS011;75286;52.218;5.180;2024-01-30T05:19:49;16.92;;;11.02;;
84923;SDS011;75286;52.218;5.180;2024-01-30T05:22:15;15.15;;;10.65;;
84923;SDS011;75286;52.218;5.180;2024-01-30T05:24:41;15.35;;;9.70;;
84923;SDS011;75286;52.218;5.180;2024-01-30T05:27:07;16.10;;;10.25;;
84923;SDS011;75286;52.218;5.180;2024-01-30T05:29:33;14.20;;;9.18;;
84923;SDS011;75286;52.218;5.180;2024-01-30T05:31:58;17.95;;;10.35;;
84923;SDS011;75286;52.218;5.180;2024-01-30T05:34:24;12.63;;;8.65;;
84923;SDS011;75286;52.218;5.180;2024-01-30T05:36:49;16.33;;;10.13;;
84923;SDS011;75286;52.218;5.180;2024-01-30T05:39:14;13.48;;;10.15;;
84923;SDS011;75286;52.218;5.180;2024-01-30T05:41:40;16.13;;;9.90;;
84923;SDS011;75286;52.218;5.180;2024-01-30T05:44:05;16.40;;;10.30;;
84923;SDS011;75286;52.218;5.180;2024-01-30T05:46:30;15.60;;;10.93;;
84923;SDS011;75286;52.218;5.180;2024-01-30T05:48:56;15.95;;;9.73;;
84923;SDS011;75286;52.218;5.180;2024-01-30T05:51:21;15.52;;;9.68;;
84923;SDS011;75286;52.218;5.180;2024-01-30T05:53:47;15.98;;;9.25;;
84923;SDS011;75286;52.218;5.180;2024-01-30T05:56:12;14.50;;;9.52;;
84923;SDS011;75286;52.218;5.180;2024-01-30T05:58:37;17.95;;;9.18;;
84923;SDS011;75286;52.218;5.180;2024-01-30T06:01:06;13.48;;;9.60;;
84923;SDS011;75286;52.218;5.180;2024-01-30T06:03:33;15.77;;;10.32;;
84923;SDS011;75286;52.218;5.180;2024-01-30T06:05:58;13.43;;;8.82;;
84923;SDS011;75286;52.218;5.180;2024-01-30T06:08:24;16.73;;;9.43;;
84923;SDS011;75286;52.218;5.180;2024-01-30T06:10:49;14.73;;;9.55;;
84923;SDS011;75286;52.218;5.180;2024-01-30T06:13:14;14.23;;;9.57;;
84923;SDS011;75286;52.218;5.180;2024-01-30T06:15:40;13.98;;;9.07;;
84923;SDS011;75286;52.218;5.180;2024-01-30T06:18:05;14.18;;;9.45;;
84923;SDS011;75286;52.218;5.180;2024-01-30T06:20:31;12.75;;;8.15;;
84923;SDS011;75286;52.218;5.180;2024-01-30T06:22:56;13.80;;;8.73;;
84923;SDS011;75286;52.218;5.180;2024-01-30T06:25:21;13.93;;;9.32;;
84923;SDS011;75286;52.218;5.180;2024-01-30T06:27:47;15.55;;;8.82;;
84923;SDS011;75286;52.218;5.180;2024-01-30T06:30:12;13.75;;;9.32;;
84923;SDS011;75286;52.218;5.180;2024-01-30T06:32:40;14.77;;;8.98;;
84923;SDS011;75286;52.218;5.180;2024-01-30T06:35:06;13.80;;;9.35;;
84923;SDS011;75286;52.218;5.180;2024-01-30T06:37:31;15.77;;;9.32;;
84923;SDS011;75286;52.218;5.180;2024-01-30T06:39:57;12.60;;;8.65;;
84923;SDS011;75286;52.218;5.180;2024-01-30T06:42:22;14.60;;;9.13;;
84923;SDS011;75286;52.218;5.180;2024-01-30T06:44:47;13.63;;;8.43;;
84923;SDS011;75286;52.218;5.180;2024-01-30T06:47:13;12.88;;;9.07;;
84923;SDS011;75286;52.218;5.180;2024-01-30T06:49:38;14.48;;;8.63;;
84923;SDS011;75286;52.218;5.180;2024-01-30T06:52:06;13.80;;;8.27;;
84923;SDS011;75286;52.218;5.180;2024-01-30T06:54:33;13.35;;;8.88;;
84923;SDS011;75286;52.218;5.180;2024-01-30T06:56:59;15.20;;;9.65;;
84923;SDS011;75286;52.218;5.180;2024-01-30T06:59:25;13.02;;;8.23;;
84923;SDS011;75286;52.218;5.180;2024-01-30T07:01:50;14.05;;;9.05;;
84923;SDS011;75286;52.218;5.180;2024-01-30T07:04:18;12.73;;;8.60;;
84923;SDS011;75286;52.218;5.180;2024-01-30T07:06:44;15.13;;;9.13;;
84923;SDS011;75286;52.218;5.180;2024-01-30T07:09:09;14.48;;;9.73;;
84923;SDS011;75286;52.218;5.180;2024-01-30T07:11:41;14.35;;;9.57;;
84923;SDS011;75286;52.218;5.180;2024-01-30T07:14:09;16.15;;;8.32;;
84923;SDS011;75286;52.218;5.180;2024-01-30T07:16:35;13.20;;;7.55;;
84923;SDS011;75286;52.218;5.180;2024-01-30T07:19:00;12.90;;;8.05;;
84923;SDS011;75286;52.218;5.180;2024-01-30T07:21:25;14.82;;;8.35;;
84923;SDS011;75286;52.218;5.180;2024-01-30T07:23:53;14.43;;;8.25;;
84923;SDS011;75286;52.218;5.180;2024-01-30T07:26:20;16.08;;;9.20;;
84923;SDS011;75286;52.218;5.180;2024-01-30T07:28:45;12.25;;;7.97;;
84923;SDS011;75286;52.218;5.180;2024-01-30T07:31:11;13.55;;;8.25;;
84923;SDS011;75286;52.218;5.180;2024-01-30T07:33:36;14.63;;;8.27;;
84923;SDS011;75286;52.218;5.180;2024-01-30T07:36:01;12.38;;;7.63;;
84923;SDS011;75286;52.218;5.180;2024-01-30T07:38:27;11.77;;;7.57;;
84923;SDS011;75286;52.218;5.180;2024-01-30T07:40:52;15.60;;;8.13;;
84923;SDS011;75286;52.218;5.180;2024-01-30T07:43:18;16.20;;;7.63;;
84923;SDS011;75286;52.218;5.180;2024-01-30T07:45:45;15.15;;;8.35;;
84923;SDS011;75286;52.218;5.180;2024-01-30T07:48:17;15.32;;;8.60;;
84923;SDS011;75286;52.218;5.180;2024-01-30T07:50:43;13.68;;;8.30;;
84923;SDS011;75286;52.218;5.180;2024-01-30T07:53:08;14.75;;;8.20;;
84923;SDS011;75286;52.218;5.180;2024-01-30T07:55:33;15.60;;;8.10;;
84923;SDS011;75286;52.218;5.180;2024-01-30T07:57:59;15.02;;;8.57;;
84923;SDS011;75286;52.218;5.180;2024-01-30T08:00:25;13.30;;;8.40;;
84923;SDS011;75286;52.218;5.180;2024-01-30T08:02:53;16.35;;;8.50;;
84923;SDS011;75286;52.218;5.180;2024-01-30T08:05:21;17.23;;;9.10;;
84923;SDS011;75286;52.218;5.180;2024-01-30T08:07:53;16.70;;;10.40;;
84923;SDS011;75286;52.218;5.180;2024-01-30T08:10:20;14.32;;;7.95;;
84923;SDS011;75286;52.218;5.180;2024-01-30T08:12:45;16.08;;;9.05;;
84923;SDS011;75286;52.218;5.180;2024-01-30T08:15:11;12.52;;;7.80;;
84923;SDS011;75286;52.218;5.180;2024-01-30T08:17:38;16.65;;;8.23;;
84923;SDS011;75286;52.218;5.180;2024-01-30T08:20:09;12.45;;;8.05;;
84923;SDS011;75286;52.218;5.180;2024-01-30T08:22:38;16.58;;;8.73;;
84923;SDS011;75286;52.218;5.180;2024-01-30T08:25:04;13.93;;;6.93;;
84923;SDS011;75286;52.218;5.180;2024-01-30T08:27:30;16.05;;;8.35;;
84923;SDS011;75286;52.218;5.180;2024-01-30T08:29:56;16.60;;;7.88;;
84923;SDS011;75286;52.218;5.180;2024-01-30T08:32:22;18.98;;;8.48;;
84923;SDS011;75286;52.218;5.180;2024-01-30T08:34:48;13.13;;;7.70;;
84923;SDS011;75286;52.218;5.180;2024-01-30T08:37:14;16.10;;;7.82;;
84923;SDS011;75286;52.218;5.180;2024-01-30T08:39:41;15.85;;;7.88;;
84923;SDS011;75286;52.218;5.180;2024-01-30T08:42:08;15.55;;;7.85;;
84923;SDS011;75286;52.218;5.180;2024-01-30T08:44:33;18.08;;;8.98;;
84923;SDS011;75286;52.218;5.180;2024-01-30T08:47:04;17.40;;;8.05;;
84923;SDS011;75286;52.218;5.180;2024-01-30T08:49:30;13.98;;;7.53;;
84923;SDS011;75286;52.218;5.180;2024-01-30T08:51:56;15.10;;;8.00;;
84923;SDS011;75286;52.218;5.180;2024-01-30T08:54:21;19.13;;;7.88;;
84923;SDS011;75286;52.218;5.180;2024-01-30T08:56:47;14.93;;;7.55;;
84923;SDS011;75286;52.218;5.180;2024-01-30T08:59:13;14.77;;;8.13;;
84923;SDS011;75286;52.218;5.180;2024-01-30T09:01:38;13.10;;;7.68;;
84923;SDS011;75286;52.218;5.180;2024-01-30T09:04:04;13.13;;;8.45;;
84923;SDS011;75286;52.218;5.180;2024-01-30T09:06:29;12.18;;;8.65;;
84923;SDS011;75286;52.218;5.180;2024-01-30T09:08:54;16.15;;;9.48;;
84923;SDS011;75286;52.218;5.180;2024-01-30T09:11:20;13.73;;;7.53;;
84923;SDS011;75286;52.218;5.180;2024-01-30T09:13:45;16.30;;;8.57;;
84923;SDS011;75286;52.218;5.180;2024-01-30T09:16:10;15.05;;;8.35;;
84923;SDS011;75286;52.218;5.180;2024-01-30T09:18:36;14.48;;;7.75;;
84923;SDS011;75286;52.218;5.180;2024-01-30T09:21:01;14.68;;;8.38;;
84923;SDS011;75286;52.218;5.180;2024-01-30T09:23:27;13.27;;;8.07;;
84923;SDS011;75286;52.218;5.180;2024-01-30T09:25:53;16.95;;;9.10;;
84923;SDS011;75286;52.218;5.180;2024-01-30T09:28:18;16.65;;;8.40;;
84923;SDS011;75286;52.218;5.180;2024-01-30T09:30:43;15.52;;;8.68;;
84923;SDS011;75286;52.218;5.180;2024-01-30T09:33:09;17.48;;;7.80;;
84923;SDS011;75286;52.218;5.180;2024-01-30T09:35:34;18.90;;;8.70;;
84923;SDS011;75286;52.218;5.180;2024-01-30T09:38:01;14.60;;;8.90;;
84923;SDS011;75286;52.218;5.180;2024-01-30T09:40:27;15.40;;;7.28;;
84923;SDS011;75286;52.218;5.180;2024-01-30T09:42:53;13.55;;;7.78;;
84923;SDS011;75286;52.218;5.180;2024-01-30T09:45:31;12.57;;;8.10;;
84923;SDS011;75286;52.218;5.180;2024-01-30T09:47:58;14.90;;;7.85;;
84923;SDS011;75286;52.218;5.180;2024-01-30T09:50:33;13.93;;;8.50;;
84923;SDS011;75286;52.218;5.180;2024-01-30T09:53:01;14.68;;;8.60;;
84923;SDS011;75286;52.218;5.180;2024-01-30T09:55:27;14.95;;;8.68;;
84923;SDS011;75286;52.218;5.180;2024-01-30T09:57:52;15.00;;;7.70;;
84923;SDS011;75286;52.218;5.180;2024-01-30T10:00:23;14.32;;;7.97;;
84923;SDS011;75286;52.218;5.180;2024-01-30T10:03:17;18.75;;;10.80;;
84923;SDS011;75286;52.218;5.180;2024-01-30T10:05:44;15.98;;;8.85;;
84923;SDS011;75286;52.218;5.180;2024-01-30T10:08:20;13.38;;;8.60;;
84923;SDS011;75286;52.218;5.180;2024-01-30T10:10:46;15.60;;;7.85;;
84923;SDS011;75286;52.218;5.180;2024-01-30T10:13:12;15.80;;;9.20;;
84923;SDS011;75286;52.218;5.180;2024-01-30T10:15:37;16.95;;;8.98;;
84923;SDS011;75286;52.218;5.180;2024-01-30T10:18:04;14.63;;;9.00;;
84923;SDS011;75286;52.218;5.180;2024-01-30T10:20:31;12.55;;;7.75;;
84923;SDS011;75286;52.218;5.180;2024-01-30T10:22:57;15.23;;;8.75;;
84923;SDS011;75286;52.218;5.180;2024-01-30T10:25:23;12.48;;;7.15;;
84923;SDS011;75286;52.218;5.180;2024-01-30T10:27:52;15.10;;;8.10;;
84923;SDS011;75286;52.218;5.180;2024-01-30T10:30:19;15.30;;;8.60;;
84923;SDS011;75286;52.218;5.180;2024-01-30T10:32:48;11.20;;;7.80;;
84923;SDS011;75286;52.218;5.180;2024-01-30T10:35:13;13.85;;;8.57;;
84923;SDS011;75286;52.218;5.180;2024-01-30T10:37:39;17.27;;;8.70;;
84923;SDS011;75286;52.218;5.180;2024-01-30T10:40:04;13.75;;;7.20;;
84923;SDS011;75286;52.218;5.180;2024-01-30T10:42:33;19.25;;;8.02;;
84923;SDS011;75286;52.218;5.180;2024-01-30T10:47:42;13.45;;;6.65;;
84923;SDS011;75286;52.218;5.180;2024-01-30T10:50:09;12.30;;;6.32;;
84923;SDS011;75286;52.218;5.180;2024-01-30T10:52:37;13.50;;;6.80;;
84923;SDS011;75286;52.218;5.180;2024-01-30T10:55:03;13.68;;;6.25;;
84923;SDS011;75286;52.218;5.180;2024-01-30T10:57:31;11.82;;;6.30;;
84923;SDS011;75286;52.218;5.180;2024-01-30T10:59:59;10.32;;;5.80;;
84923;SDS011;75286;52.218;5.180;2024-01-30T11:02:26;10.07;;;4.95;;
84923;SDS011;75286;52.218;5.180;2024-01-30T11:04:59;12.00;;;4.88;;
84923;SDS011;75286;52.218;5.180;2024-01-30T11:07:25;13.35;;;4.25;;
84923;SDS011;75286;52.218;5.180;2024-01-30T11:15:07;7.30;;;2.65;;
84923;SDS011;75286;52.218;5.180;2024-01-30T11:22:44;6.63;;;2.72;;
84923;SDS011;75286;52.218;5.180;2024-01-30T11:25:11;8.55;;;2.95;;
84923;SDS011;75286;52.218;5.180;2024-01-30T11:27:38;9.02;;;3.50;;
84923;SDS011;75286;52.218;5.180;2024-01-30T11:30:04;13.07;;;3.58;;
84923;SDS011;75286;52.218;5.180;2024-01-30T11:32:30;10.50;;;3.30;;
84923;SDS011;75286;52.218;5.180;2024-01-30T11:34:55;9.32;;;5.40;;
84923;SDS011;75286;52.218;5.180;2024-01-30T11:37:25;9.45;;;3.80;;
84923;SDS011;75286;52.218;5.180;2024-01-30T11:42:19;10.38;;;3.45;;
84923;SDS011;75286;52.218;5.180;2024-01-30T11:44:49;7.03;;;3.53;;
84923;SDS011;75286;52.218;5.180;2024-01-30T11:47:14;7.53;;;3.13;;
84923;SDS011;75286;52.218;5.180;2024-01-30T11:49:41;6.70;;;4.25;;
84923;SDS011;75286;52.218;5.180;2024-01-30T11:52:06;6.15;;;2.90;;
84923;SDS011;75286;52.218;5.180;2024-01-30T11:54:32;6.90;;;2.92;;
84923;SDS011;75286;52.218;5.180;2024-01-30T11:56:59;7.05;;;2.80;;
84923;SDS011;75286;52.218;5.180;2024-01-30T11:59:25;6.07;;;2.50;;
84923;SDS011;75286;52.218;5.180;2024-01-30T12:02:15;5.85;;;2.25;;
84923;SDS011;75286;52.218;5.180;2024-01-30T12:07:31;3.92;;;2.15;;
84923;SDS011;75286;52.218;5.180;2024-01-30T12:09:57;7.28;;;1.95;;
84923;SDS011;75286;52.218;5.180;2024-01-30T12:12:38;6.13;;;1.88;;
84923;SDS011;75286;52.218;5.180;2024-01-30T12:15:04;9.20;;;1.55;;
84923;SDS011;75286;52.218;5.180;2024-01-30T12:17:38;4.88;;;1.40;;
84923;SDS011;75286;52.218;5.180;2024-01-30T12:20:07;7.50;;;1.20;;
84923;SDS011;75286;52.218;5.180;2024-01-30T12:22:37;2.95;;;1.35;;
84923;SDS011;75286;52.218;5.180;2024-01-30T12:25:25;5.55;;;1.65;;
84923;SDS011;75286;52.218;5.180;2024-01-30T12:27:58;3.95;;;1.20;;
84923;SDS011;75286;52.218;5.180;2024-01-30T12:30:24;5.05;;;1.50;;
84923;SDS011;75286;52.218;5.180;2024-01-30T12:32:49;3.67;;;1.10;;
84923;SDS011;75286;52.218;5.180;2024-01-30T12:35:16;6.13;;;1.20;;
84923;SDS011;75286;52.218;5.180;2024-01-30T12:37:58;6.78;;;1.70;;
84923;SDS011;75286;52.218;5.180;2024-01-30T12:40:29;4.70;;;1.70;;
84923;SDS011;75286;52.218;5.180;2024-01-30T12:42:58;3.53;;;1.13;;
84923;SDS011;75286;52.218;5.180;2024-01-30T12:45:29;4.80;;;1.30;;
84923;SDS011;75286;52.218;5.180;2024-01-30T12:48:04;4.05;;;1.55;;
84923;SDS011;75286;52.218;5.180;2024-01-30T12:50:33;8.85;;;1.40;;
84923;SDS011;75286;52.218;5.180;2024-01-30T12:52:58;5.65;;;1.83;;
84923;SDS011;75286;52.218;5.180;2024-01-30T12:55:24;9.07;;;1.80;;
84923;SDS011;75286;52.218;5.180;2024-01-30T12:57:49;7.38;;;1.52;;
84923;SDS011;75286;52.218;5.180;2024-01-30T13:00:18;7.70;;;1.65;;
84923;SDS011;75286;52.218;5.180;2024-01-30T13:06:55;8.25;;;1.73;;
84923;SDS011;75286;52.218;5.180;2024-01-30T13:09:20;3.80;;;1.67;;
84923;SDS011;75286;52.218;5.180;2024-01-30T13:11:52;9.45;;;1.80;;
84923;SDS011;75286;52.218;5.180;2024-01-30T13:14:24;7.97;;;1.77;;
84923;SDS011;75286;52.218;5.180;2024-01-30T13:16:49;6.05;;;1.45;;
84923;SDS011;75286;52.218;5.180;2024-01-30T13:19:16;7.13;;;1.40;;
84923;SDS011;75286;52.218;5.180;2024-01-30T13:21:45;6.00;;;1.60;;
84923;SDS011;75286;52.218;5.180;2024-01-30T13:24:10;7.40;;;1.42;;
84923;SDS011;75286;52.218;5.180;2024-01-30T13:26:35;7.07;;;1.40;;
84923;SDS011;75286;52.218;5.180;2024-01-30T13:29:06;3.97;;;1.65;;
84923;SDS011;75286;52.218;5.180;2024-01-30T13:31:31;4.55;;;1.58;;
84923;SDS011;75286;52.218;5.180;2024-01-30T13:33:57;6.00;;;1.90;;
84923;SDS011;75286;52.218;5.180;2024-01-30T13:36:22;7.18;;;2.05;;
84923;SDS011;75286;52.218;5.180;2024-01-30T13:38:48;4.18;;;1.67;;
84923;SDS011;75286;52.218;5.180;2024-01-30T13:41:13;6.65;;;1.98;;
84923;SDS011;75286;52.218;5.180;2024-01-30T13:43:39;7.68;;;3.47;;
84923;SDS011;75286;52.218;5.180;2024-01-30T13:46:04;8.75;;;2.10;;
84923;SDS011;75286;52.218;5.180;2024-01-30T13:51:52;5.70;;;2.40;;
84923;SDS011;75286;52.218;5.180;2024-01-30T13:54:17;3.17;;;1.88;;
84923;SDS011;75286;52.218;5.180;2024-01-30T13:56:43;5.30;;;2.20;;
84923;SDS011;75286;52.218;5.180;2024-01-30T13:59:08;6.25;;;2.97;;
84923;SDS011;75286;52.218;5.180;2024-01-30T14:01:49;10.10;;;3.15;;
84923;SDS011;75286;52.218;5.180;2024-01-30T14:04:15;8.68;;;2.72;;
84923;SDS011;75286;52.218;5.180;2024-01-30T14:06:40;5.70;;;2.28;;
84923;SDS011;75286;52.218;5.180;2024-01-30T14:09:09;7.15;;;2.97;;
84923;SDS011;75286;52.218;5.180;2024-01-30T14:11:36;5.40;;;2.80;;
84923;SDS011;75286;52.218;5.180;2024-01-30T14:14:01;7.40;;;3.40;;
84923;SDS011;75286;52.218;5.180;2024-01-30T14:16:26;7.03;;;3.50;;
84923;SDS011;75286;52.218;5.180;2024-01-30T14:18:53;5.28;;;3.03;;
84923;SDS011;75286;52.218;5.180;2024-01-30T14:21:22;7.32;;;2.92;;
84923;SDS011;75286;52.218;5.180;2024-01-30T14:23:50;6.15;;;2.70;;
84923;SDS011;75286;52.218;5.180;2024-01-30T14:26:15;6.75;;;2.88;;
84923;SDS011;75286;52.218;5.180;2024-01-30T14:28:40;7.03;;;2.70;;
84923;SDS011;75286;52.218;5.180;2024-01-30T14:31:12;6.13;;;2.95;;
84923;SDS011;75286;52.218;5.180;2024-01-30T14:33:38;7.30;;;2.75;;
84923;SDS011;75286;52.218;5.180;2024-01-30T14:36:19;5.43;;;2.38;;
84923;SDS011;75286;52.218;5.180;2024-01-30T14:38:45;5.32;;;2.92;;
84923;SDS011;75286;52.218;5.180;2024-01-30T14:41:10;5.60;;;2.85;;
84923;SDS011;75286;52.218;5.180;2024-01-30T14:43:54;8.55;;;3.20;;
84923;SDS011;75286;52.218;5.180;2024-01-30T14:46:22;7.32;;;3.85;;
84923;SDS011;75286;52.218;5.180;2024-01-30T14:48:48;5.35;;;2.67;;
84923;SDS011;75286;52.218;5.180;2024-01-30T14:51:16;5.43;;;2.80;;
84923;SDS011;75286;52.218;5.180;2024-01-30T14:53:41;6.00;;;3.42;;
84923;SDS011;75286;52.218;5.180;2024-01-30T14:56:27;4.60;;;2.80;;
84923;SDS011;75286;52.218;5.180;2024-01-30T14:59:40;6.00;;;3.80;;
84923;SDS011;75286;52.218;5.180;2024-01-30T15:02:06;5.75;;;3.22;;